LSMA 200150Z AUTO 20003KT 9999NDV BKN140 14/13 Q1025 RMK LSMA 200120Z AUTO VRB02KT 9999NDV BKN140 14/13 Q1025 RMK LSMA 200050Z AUTO 19003KT 9999NDV FEW140 14/13 Q1025 RMK LSMA 200020Z AUTO 19003KT 150V210 9999NDV BKN130 15/13 Q1025 RMK LSMA 192350Z AUTO 00000KT 9999NDV BKN130 15/13 Q1025 RMK LSMA 192320Z AUTO 19004KT 9999NDV FEW120 14/13 Q1025 RMK LSMA 192250Z AUTO 19004KT 9999NDV BKN120 15/13 Q1025 RMK LSMA 192220Z AUTO VRB02KT 9999NDV BKN120 15/14 Q1025 RMK LSMA 192150Z AUTO 18004KT 9999NDV SCT130 15/14 Q1025 RMK LSMA 192120Z AUTO VRB01KT 9999NDV SCT130 16/14 Q1025 RMK LSMA 192020Z AUTO 23004KT 180V250 9999NDV NCD 16/15 Q1025 RMK LSMA 191950Z AUTO 19007KT 9999NDV NCD 17/15 Q1024 RMK LSMA 191920Z AUTO 19009KT 160V220 9999NDV NCD 18/15 Q1025 RMK LSMA 191850Z AUTO 21005KT 9999NDV NCD 18/15 Q1025 RMK LSMA 191820Z AUTO 21009KT 170V230 9999NDV FEW130 19/15 Q1025 RMK LSMA 191750Z AUTO 21007KT 9999NDV BKN084 19/16 Q1025 RMK LSMA 191720Z AUTO 18010KT 9999NDV BKN084 BKN096 19/16 Q1025 RERA RMK LSMA 191650Z AUTO 24005KT 9999NDV -SHRA FEW022 SCT034 BKN085 20/17 Q1025 RESHRA RMK LSMA 191620Z AUTO 21013KT 170V230 9999NDV -SHRA FEW029 BKN087 BKN099 20/16 Q1025 RMK LSMA 191550Z AUTO 23004KT 190V280 9999NDV SCT094 BKN110 20/17 Q1024 RERA RMK LSMA 191520Z AUTO 19003KT 140V280 9999NDV FEW017 BKN095 20/15 Q1024 RESHRA RMK LSMA 191450Z AUTO 28004KT 210V350 9999NDV SHRA FEW040 BKN059 OVC092 19/16 Q1024 RMK LSMA 191420Z AUTO VRB05KT 9999NDV -SHRA SCT028 BKN060 BKN100 20/15 Q1024 RESHRA RMK LSMA 191350Z 23005KT 9999 -SHRA FEW030 BKN055 BKN100 20/16 Q1024 RESHRA RMK BLU LSMA 191320Z VRB01KT 9999 VCSH BKN090 23/17 Q1023 RMK BLU LSMA 191250Z VRB03KT 9999 FEW027 23/16 Q1023 RMK BLU+ LSMA 191220Z 24007KT 210V280 9999 FEW026 SCT044 BKN120 21/14 Q1023 RMK BLU LSMA 191150Z 20010KT 170V230 9999 -SHRA FEW033 SCT062 BKN092 22/14 Q1023 RMK BLU LSMA 191120Z 09005KT 020V120 9999 FEW097 SCT110 27/14 Q1022 RMK BLU+ LSMA 191050Z AUTO 07007KT 9999NDV FEW100 27/14 Q1022 RMK LSMA 191020Z AUTO 05008KT 9999NDV FEW100 26/14 Q1023 RMK LSMA 190950Z 02004KT 330V060 CAVOK 25/15 Q1023 RMK BLU LSMA 190920Z 02006KT 9999 FEW060 24/16 Q1023 RMK BLU+ LSMA 190850Z 07005KT 020V170 9999 FEW050 23/15 Q1023 RMK BLU+ LSMA 190820Z 05005KT 340V110 CAVOK 22/15 Q1023 RMK BLU LSMA 190750Z 06004KT CAVOK 21/15 Q1023 RMK BLU LSMA 190720Z VRB03KT 9999 FEW095 22/14 Q1023 RMK BLU+ LSMA 190650Z VRB03KT 9999 SCT091 20/14 Q1023 RMK BLU+ LSMA 190620Z 17003KT 140V200 9999 BKN088 18/14 Q1023 RMK BLU LSMA 190550Z 22003KT 170V270 9999 BKN087 BKN100 17/14 Q1023 RMK BLU LSMA 190450Z 20003KT 160V260 9999 SCT099 15/13 Q1023 RMK BLU+ LSMA 190420Z AUTO VRB02KT 9999NDV NCD 15/12 Q1022 RMK LSMA 190350Z AUTO 17004KT 9999NDV NCD 15/12 Q1022 RMK LSMA 190320Z AUTO 21003KT 160V250 9999NDV NCD 14/12 Q1022 RMK LSMA 190250Z AUTO VRB02KT 9999NDV NCD 15/12 Q1022 RMK LSMA 190220Z AUTO VRB02KT 9999NDV NCD 15/13 Q1022 RMK LSMA 190150Z AUTO 00000KT 9999NDV NCD 15/13 Q1022 RMK LSMA 190120Z AUTO 00000KT 9999NDV NCD 15/13 Q1021 RMK LSMA 190050Z AUTO 19003KT 9999NDV NCD 15/13 Q1021 RMK LSMA 190020Z AUTO 00000KT 9999NDV NCD 16/13 Q1021 RMK LSMA 182350Z AUTO 00000KT 9999NDV NCD 17/13 Q1021 RMK LSMA 182320Z AUTO VRB03KT 9999NDV NCD 17/13 Q1021 RMK LSMA 182250Z AUTO VRB02KT 9999NDV NCD 16/13 Q1021 RMK LSMA 182220Z AUTO VRB02KT 9999NDV NCD 17/13 Q1021 RMK LSMA 182150Z AUTO VRB02KT 9999NDV NCD 18/13 Q1021 RMK LSMA 182120Z AUTO 23004KT 9999NDV NCD 18/14 Q1021 RMK LSMA 182050Z AUTO 00000KT 9999NDV NCD 19/13 Q1021 RMK LSMA 182020Z AUTO VRB02KT 9999NDV NCD 19/13 Q1021 RMK LSMA 181950Z AUTO 00000KT 9999NDV NCD 20/13 Q1020 RMK LSMA 181920Z AUTO 20004KT 9999NDV NCD 21/14 Q1020 RMK LSMA 181850Z AUTO 20003KT 9999NDV NCD 21/15 Q1020 RMK LSMA 181820Z AUTO VRB02KT 9999NDV NCD 23/14 Q1020 RMK LSMA 181750Z AUTO 05005KT 9999NDV NCD 24/14 Q1020 RMK LSMA 181720Z AUTO 04006KT 9999NDV NCD 25/14 Q1020 RMK LSMA 181650Z AUTO 05008KT 9999NDV NCD 26/14 Q1020 RMK LSMA 181620Z AUTO 06009KT 030V090 9999NDV NCD 27/12 Q1020 RMK LSMA 181550Z AUTO 04008KT 350V070 9999NDV NCD 27/12 Q1020 RMK LSMA 181520Z AUTO 03007G17KT 320V090 9999NDV NCD 27/12 Q1020 RMK LSMA 181450Z AUTO 03010KT 330V090 9999NDV NCD 27/13 Q1020 RMK LSMA 181420Z 07011KT CAVOK 27/13 Q1020 RMK BLU

METAR Messwerte "ALPNACH" LSMA

Zurück zur Übersicht

Ortsname
Ländercode / m ü. NN
Zeit Temperatur Taupunkt Rel.
Luftfeuchte
Luftdruck:
Altimeter
NN
Station
Wind in Beaufort
(Knoten)
Sichtweite
(Meter)
Wolken
(Meter über Grund)
Wettererscheinung
ALPNACH
CH 441
Fr 20.05. 03:50141394 %1025
1025
973
SSW 2 (3) Stark bewölkt (4300) 
ALPNACH
CH 441
Fr 20.05. 03:20141394 %1025
1025
973
Uml 1 (2) Stark bewölkt (4300) 
ALPNACH
CH 441
Fr 20.05. 02:50141394 %1025
1025
973
S 2 (3) Leicht bewölkt (4300) 
ALPNACH
CH 441
Fr 20.05. 02:20151388 %1025
1025
973
S 2 (3)
SSO - SSW
 Stark bewölkt (4000) 
ALPNACH
CH 441
Fr 20.05. 01:50151388 %1025
1025
973
Windstill Stark bewölkt (4000) 
ALPNACH
CH 441
Fr 20.05. 01:20141394 %1025
1025
973
S 2 (4) Leicht bewölkt (3700) 
ALPNACH
CH 441
Fr 20.05. 00:50151388 %1025
1025
973
S 2 (4) Stark bewölkt (3700) 
ALPNACH
CH 441
Fr 20.05. 00:20151494 %1025
1025
973
Uml 1 (2) Stark bewölkt (3700) 
ALPNACH
CH 441
Do 19.05. 23:50151494 %1025
1025
973
S 2 (4) Wolkig (4000) 
ALPNACH
CH 441
Do 19.05. 23:20161488 %1025
1025
973
Uml 1 (1) Wolkig (4000) 
ALPNACH
CH 441
Do 19.05. 22:20161594 %1025
1025
973
SW 2 (4)
S - WSW
   
ALPNACH
CH 441
Do 19.05. 21:50171588 %1024
1024
972
S 3 (7)   
ALPNACH
CH 441
Do 19.05. 21:20181583 %1025
1025
973
S 3 (9)
SSO - SW
   
ALPNACH
CH 441
Do 19.05. 20:50181583 %1025
1025
973
SSW 2 (5)   
ALPNACH
CH 441
Do 19.05. 20:20191578 %1025
1024
973
SSW 3 (9)
S - SW
 Leicht bewölkt (4000) 
ALPNACH
CH 441
Do 19.05. 19:50191683 %1025
1024
973
SSW 3 (7) Stark bewölkt (2600) 
ALPNACH
CH 441
Do 19.05. 19:20191683 %1025
1024
973
S 3 (10) Stark bewölkt (2900)
Stark bewölkt (2600)
 
ALPNACH
CH 441
Do 19.05. 18:50201783 %1025
1024
973
WSW 2 (5) Stark bewölkt (2600)
Wolkig (1000)
Leicht bewölkt (670)
Regen-Schauer (schwach)
ALPNACH
CH 441
Do 19.05. 18:20201678 %1025
1024
973
SSW 4 (13)
S - SW
 Stark bewölkt (3000)
Stark bewölkt (2700)
Leicht bewölkt (880)
Regen-Schauer (schwach)
ALPNACH
CH 441
Do 19.05. 17:50201783 %1024
1023
972
SW 2 (4)
S - W
 Stark bewölkt (3400)
Wolkig (2900)
 
ALPNACH
CH 441
Do 19.05. 17:20201573 %1024
1023
972
S 2 (3)
SO - W
 Stark bewölkt (2900)
Leicht bewölkt (520)
 
ALPNACH
CH 441
Do 19.05. 16:50191683 %1024
1023
972
W 2 (4)
SSW - N
 Bedeckt (2800)
Stark bewölkt (1800)
Leicht bewölkt (1200)
Regen-Schauer
ALPNACH
CH 441
Do 19.05. 16:20201573 %1024
1023
972
Uml 2 (5) Stark bewölkt (3000)
Stark bewölkt (1800)
Wolkig (850)
Regen-Schauer (schwach)
ALPNACH
CH 441
Do 19.05. 15:50201678 %1024
1023
972
SW 2 (5)>= 10000Stark bewölkt (3000)
Stark bewölkt (1700)
Leicht bewölkt (910)
Regen-Schauer (schwach)
ALPNACH
CH 441
Do 19.05. 15:20231769 %1023
1022
971
Uml 1 (1)>= 10000Stark bewölkt (2700) 
ALPNACH
CH 441
Do 19.05. 14:50231665 %1023
1022
971
Uml 2 (3)>= 10000Leicht bewölkt (820) 
ALPNACH
CH 441
Do 19.05. 14:20211464 %1023
1022
971
WSW 3 (7)
SSW - W
>= 10000Stark bewölkt (3700)
Wolkig (1300)
Leicht bewölkt (790)
 
ALPNACH
CH 441
Do 19.05. 13:50221460 %1023
1022
971
SSW 3 (10)
S - SW
>= 10000Stark bewölkt (2800)
Wolkig (1900)
Leicht bewölkt (1000)
Regen-Schauer (schwach)
ALPNACH
CH 441
Do 19.05. 13:20271445 %1022
1020
970
O 2 (5)
NNO - OSO
>= 10000Wolkig (3400)
Leicht bewölkt (3000)
 
ALPNACH
CH 441
Do 19.05. 12:50271445 %1022
1020
970
ONO 3 (7) Leicht bewölkt (3000) 
ALPNACH
CH 441
Do 19.05. 12:20261448 %1023
1021
971
NO 3 (8) Leicht bewölkt (3000) 
ALPNACH
CH 441
Do 19.05. 11:50251554 %1023
1021
971
NNO 2 (4)
NNW - ONO
>= 10000Nicht signifikant 
ALPNACH
CH 441
Do 19.05. 11:20241661 %1023
1021
971
NNO 2 (6)>= 10000Leicht bewölkt (1800) 
ALPNACH
CH 441
Do 19.05. 10:50231561 %1023
1022
971
ONO 2 (5)
NNO - S
>= 10000Leicht bewölkt (1500) 
ALPNACH
CH 441
Do 19.05. 10:20221565 %1023
1022
971
NO 2 (5)
NNW - OSO
>= 10000Nicht signifikant 
ALPNACH
CH 441
Do 19.05. 09:50211569 %1023
1022
971
ONO 2 (4)>= 10000Nicht signifikant 
ALPNACH
CH 441
Do 19.05. 09:20221460 %1023
1022
971
Uml 2 (3)>= 10000Leicht bewölkt (2900) 
ALPNACH
CH 441
Do 19.05. 08:50201468 %1023
1022
971
Uml 2 (3)>= 10000Wolkig (2800) 
ALPNACH
CH 441
Do 19.05. 08:20181477 %1023
1023
971
S 2 (3)
SO - SSW
>= 10000Stark bewölkt (2700) 
ALPNACH
CH 441
Do 19.05. 07:50171482 %1023
1023
971
SW 2 (3)
S - W
>= 10000Stark bewölkt (3000)
Stark bewölkt (2700)
 
ALPNACH
CH 441
Do 19.05. 06:50151388 %1023
1023
971
SSW 2 (3)
SSO - W
>= 10000Wolkig (3000) 
ALPNACH
CH 441
Do 19.05. 06:20151282 %1022
1022
970
Uml 1 (2)   
ALPNACH
CH 441
Do 19.05. 05:50151282 %1022
1022
970
S 2 (4)   
ALPNACH
CH 441
Do 19.05. 05:20141288 %1022
1022
970
SSW 2 (3)
SSO - WSW
   
ALPNACH
CH 441
Do 19.05. 04:50151282 %1022
1022
970
Uml 1 (2)   
ALPNACH
CH 441
Do 19.05. 04:20151388 %1022
1022
970
Uml 1 (2)   
ALPNACH
CH 441
Do 19.05. 03:50151388 %1022
1022
970
Windstill   
ALPNACH
CH 441
Do 19.05. 03:20151388 %1021
1021
969
Windstill   
ALPNACH
CH 441
Do 19.05. 02:50151388 %1021
1021
969
S 2 (3)   
ALPNACH
CH 441
Do 19.05. 02:20161382 %1021
1021
969
Windstill   
ALPNACH
CH 441
Do 19.05. 01:50171377 %1021
1021
969
Windstill   
ALPNACH
CH 441
Do 19.05. 01:20171377 %1021
1021
969
Uml 2 (3)   
ALPNACH
CH 441
Do 19.05. 00:50161382 %1021
1021
969
Uml 1 (2)   
ALPNACH
CH 441
Do 19.05. 00:20171377 %1021
1021
969
Uml 1 (2)   
ALPNACH
CH 441
Mi 18.05. 23:50181373 %1021
1021
969
Uml 1 (2)   
ALPNACH
CH 441
Mi 18.05. 23:20181477 %1021
1021
969
SW 2 (4)   
ALPNACH
CH 441
Mi 18.05. 22:50191368 %1021
1020
969
Windstill   
ALPNACH
CH 441
Mi 18.05. 22:20191368 %1021
1020
969
Uml 1 (2)   
ALPNACH
CH 441
Mi 18.05. 21:50201364 %1020
1019
968
Windstill   
ALPNACH
CH 441
Mi 18.05. 21:20211464 %1020
1019
968
SSW 2 (4)   
ALPNACH
CH 441
Mi 18.05. 20:50211569 %1020
1019
968
SSW 2 (3)   
ALPNACH
CH 441
Mi 18.05. 20:20231457 %1020
1019
968
Uml 1 (2)   
ALPNACH
CH 441
Mi 18.05. 19:50241454 %1020
1018
968
NO 2 (5)   
ALPNACH
CH 441
Mi 18.05. 19:20251450 %1020
1018
968
NO 2 (6)   
ALPNACH
CH 441
Mi 18.05. 18:50261448 %1020
1018
968
NO 3 (8)   
ALPNACH
CH 441
Mi 18.05. 18:20271239 %1020
1018
968
ONO 3 (9)
NNO - O
   
ALPNACH
CH 441
Mi 18.05. 17:50271239 %1020
1018
968
NO 3 (8)
N - ONO
   
ALPNACH
CH 441
Mi 18.05. 17:20271239 %1020
1018
968
NNO 3 (7) - 5 (17)
NW - O
   
ALPNACH
CH 441
Mi 18.05. 16:50271342 %1020
1018
968
NNO 3 (10)
NNW - O
   
ALPNACH
CH 441
Mi 18.05. 16:20271342 %1020
1018
968
ONO 4 (11)>= 10000Nicht signifikant 

Altimeter: Einstellung am Altimeter (Höhenmesser), die Höhe 0 muss auf diesen Luftdruckwert zeigen, damit das Gerät die Stationshöhe richtig anzeigt.

NN: Luftdruck reduziert auf "Normal Null", auf Meereshöhe, dieser von der Temperatur abhängige Wert wird bisweilen unkorrekt einfach als "Luftdruck" bezeichnet. Eigentlich nur eine fiktive Größe, die es erlaubt, Stationen auf unterschiedlichen Höhen miteinander zu vergleichen.

Station: Realer Luftdruck an der Station.